createdAt,value
2017-12-20T00:02:16.369Z,94.20
2017-12-20T00:04:44.619Z,94.10
2017-12-20T00:07:13.152Z,93.70
2017-12-20T00:09:42.740Z,93.90
2017-12-20T00:12:10.995Z,93.90
2017-12-20T00:14:39.244Z,94.20
2017-12-20T00:17:07.519Z,93.80
2017-12-20T00:19:36.539Z,94.80
2017-12-20T00:22:04.791Z,94.80
2017-12-20T00:24:33.267Z,94.40
2017-12-20T00:27:02.282Z,94.90
2017-12-20T00:29:30.547Z,94.80
2017-12-20T00:31:59.370Z,93.40
2017-12-20T00:34:27.687Z,95.20
2017-12-20T00:36:55.935Z,95.20
2017-12-20T00:39:24.202Z,94.80
2017-12-20T00:41:52.450Z,93.60
2017-12-20T00:44:20.710Z,93.30
2017-12-20T00:46:49.002Z,93.30
2017-12-20T00:49:17.260Z,93.40
2017-12-20T00:51:45.712Z,92.80
2017-12-20T00:54:14.355Z,93.10
2017-12-20T00:56:42.617Z,93.10
2017-12-20T00:59:10.860Z,92.60
2017-12-20T01:01:39.258Z,93.30
2017-12-20T01:04:08.307Z,93.10
2017-12-20T01:06:36.557Z,93.10
2017-12-20T01:09:06.847Z,93.50
2017-12-20T01:11:35.851Z,93.50
2017-12-20T01:14:04.871Z,93.30
2017-12-20T01:16:33.266Z,93.30
2017-12-20T01:19:01.523Z,93.70
2017-12-20T01:21:29.784Z,93.50
2017-12-20T01:23:58.055Z,94.20
2017-12-20T01:26:27.075Z,94.40
2017-12-20T01:28:55.330Z,94.40
2017-12-20T01:31:23.602Z,93.90
2017-12-20T01:33:51.852Z,94.00
2017-12-20T01:36:20.109Z,94.50
2017-12-20T01:38:48.678Z,95.60
2017-12-20T01:41:16.932Z,95.40
2017-12-20T01:43:45.183Z,95.60
2017-12-20T01:46:13.467Z,94.90
2017-12-20T01:48:42.487Z,96.30
2017-12-20T01:51:10.743Z,96.20
2017-12-20T01:53:39.019Z,95.50
2017-12-20T01:56:08.034Z,95.20
2017-12-20T01:58:36.475Z,95.20
2017-12-20T02:01:05.028Z,95.90
2017-12-20T02:03:33.275Z,95.80
2017-12-20T02:06:01.530Z,95.60
2017-12-20T02:08:30.577Z,95.10
2017-12-20T02:10:58.836Z,95.10
2017-12-20T02:13:27.079Z,95.90
2017-12-20T02:15:55.350Z,95.30
2017-12-20T02:18:23.603Z,94.90
2017-12-20T02:20:51.856Z,94.70
2017-12-20T02:23:20.190Z,95.00
2017-12-20T02:25:48.464Z,94.90
2017-12-20T02:28:16.715Z,95.40
2017-12-20T02:30:44.987Z,95.50
2017-12-20T02:33:24.928Z,96.20
2017-12-20T02:35:53.192Z,95.60
2017-12-20T02:38:33.186Z,95.10
2017-12-20T02:41:01.627Z,95.10
2017-12-20T02:43:29.875Z,95.10
2017-12-20T02:45:58.124Z,95.30
2017-12-20T02:48:26.407Z,95.30
2017-12-20T02:50:54.659Z,95.20
2017-12-20T02:53:22.912Z,95.60
2017-12-20T02:55:51.287Z,95.80
2017-12-20T02:58:19.515Z,94.90
2017-12-20T03:00:48.814Z,95.40
2017-12-20T03:03:17.187Z,95.40
2017-12-20T03:05:46.211Z,95.50
2017-12-20T03:08:14.467Z,95.50
2017-12-20T03:10:42.743Z,95.50
2017-12-20T03:13:10.987Z,95.70
2017-12-20T03:15:39.240Z,96.00
2017-12-20T03:18:07.520Z,96.30
2017-12-20T03:20:35.802Z,95.70
2017-12-20T03:23:04.046Z,95.40
2017-12-20T03:25:32.642Z,95.60
2017-12-20T03:28:00.885Z,95.70
2017-12-20T03:30:29.320Z,95.40
2017-12-20T03:32:57.588Z,94.60
2017-12-20T03:35:25.822Z,94.70
2017-12-20T03:37:54.063Z,94.70
2017-12-20T03:40:22.327Z,94.50
2017-12-20T03:42:50.576Z,95.10
2017-12-20T03:45:18.815Z,95.20
2017-12-20T03:47:47.925Z,95.60
2017-12-20T03:50:16.159Z,95.60
2017-12-20T03:52:44.407Z,95.20
2017-12-20T03:55:12.667Z,95.00
2017-12-20T03:57:40.919Z,95.70
2017-12-20T04:00:09.931Z,94.90
2017-12-20T04:02:38.314Z,94.90
2017-12-20T04:05:06.555Z,94.80
2017-12-20T04:07:34.808Z,95.30
2017-12-20T04:10:03.490Z,95.40
2017-12-20T04:12:31.735Z,95.40
2017-12-20T04:15:00.187Z,95.20
2017-12-20T04:17:29.210Z,95.00
2017-12-20T04:19:57.455Z,95.00
2017-12-20T04:22:25.711Z,95.60
2017-12-20T04:24:53.988Z,96.00
2017-12-20T04:27:22.346Z,95.90
2017-12-20T04:29:50.595Z,96.00
2017-12-20T04:32:18.923Z,96.10
2017-12-20T04:34:47.175Z,96.30
2017-12-20T04:37:15.423Z,96.00
2017-12-20T04:39:43.691Z,95.90
2017-12-20T04:42:11.951Z,96.20
2017-12-20T04:44:40.199Z,96.30
2017-12-20T04:47:08.851Z,96.10
2017-12-20T04:49:37.098Z,96.70
2017-12-20T04:52:05.347Z,96.50
2017-12-20T04:54:33.794Z,96.30
2017-12-20T04:57:02.032Z,96.30
2017-12-20T04:59:30.274Z,96.40
2017-12-20T05:01:58.544Z,96.50
2017-12-20T05:04:26.891Z,96.50
2017-12-20T05:06:55.141Z,96.70
2017-12-20T05:09:23.591Z,96.70
2017-12-20T05:11:51.862Z,96.80
2017-12-20T05:14:20.102Z,96.70
2017-12-20T05:16:48.452Z,96.40
2017-12-20T05:19:16.694Z,96.40
2017-12-20T05:21:44.940Z,96.20
2017-12-20T05:24:13.199Z,96.10
2017-12-20T05:26:41.434Z,96.00
2017-12-20T05:29:10.451Z,96.10
2017-12-20T05:31:38.723Z,96.00
2017-12-20T05:34:08.895Z,95.60
2017-12-20T05:36:37.139Z,95.70
2017-12-20T05:39:05.853Z,96.00
2017-12-20T05:41:34.343Z,96.50
2017-12-20T05:44:02.591Z,96.20
2017-12-20T05:46:30.872Z,96.10
2017-12-20T05:48:59.115Z,96.40
2017-12-20T05:51:27.358Z,96.70
2017-12-20T05:53:55.615Z,96.90
2017-12-20T05:56:23.859Z,96.70
2017-12-20T05:58:52.103Z,96.60
2017-12-20T06:01:20.482Z,96.60
2017-12-20T06:03:48.722Z,97.00
2017-12-20T06:06:17.523Z,96.70
2017-12-20T06:08:45.790Z,96.80
2017-12-20T06:11:14.035Z,96.70
2017-12-20T06:13:42.287Z,96.50
2017-12-20T06:16:10.555Z,96.80
2017-12-20T06:18:38.803Z,97.10
2017-12-20T06:21:07.064Z,96.80
2017-12-20T06:23:35.463Z,96.60
2017-12-20T06:26:03.714Z,96.50
2017-12-20T06:28:31.947Z,96.60
2017-12-20T06:31:00.214Z,96.60
2017-12-20T06:33:28.449Z,96.60
2017-12-20T06:35:56.835Z,96.50
2017-12-20T06:38:25.106Z,96.60
2017-12-20T06:40:53.400Z,96.40
2017-12-20T06:43:21.632Z,96.40
2017-12-20T06:45:50.448Z,96.50
2017-12-20T06:48:18.699Z,96.60
2017-12-20T06:50:46.914Z,96.50
2017-12-20T06:53:15.218Z,96.20
2017-12-20T06:55:43.461Z,96.10
2017-12-20T06:58:11.702Z,96.30
2017-12-20T07:00:40.420Z,96.30
2017-12-20T07:03:08.659Z,96.50
2017-12-20T07:05:36.914Z,96.40
2017-12-20T07:08:06.919Z,96.40
2017-12-20T07:10:35.161Z,96.40
2017-12-20T07:13:03.451Z,96.20
2017-12-20T07:15:31.720Z,96.10
2017-12-20T07:17:59.966Z,96.20
2017-12-20T07:20:28.203Z,96.40
2017-12-20T07:22:56.463Z,96.20
2017-12-20T07:25:24.838Z,96.20
2017-12-20T07:27:53.098Z,96.40
2017-12-20T07:30:21.585Z,96.50
2017-12-20T07:32:49.831Z,96.40
2017-12-20T07:35:18.079Z,96.60
2017-12-20T07:37:46.359Z,96.30
2017-12-20T07:40:15.374Z,95.30
2017-12-20T07:42:43.631Z,95.30
2017-12-20T07:45:11.902Z,95.50
2017-12-20T07:47:40.140Z,95.90
2017-12-20T07:50:08.383Z,96.50
2017-12-20T07:52:37.001Z,96.60
2017-12-20T07:55:06.144Z,95.90
2017-12-20T07:57:34.435Z,96.00
2017-12-20T08:00:02.690Z,95.20
2017-12-20T08:02:31.710Z,94.30
2017-12-20T08:04:59.965Z,94.30
2017-12-20T08:07:29.222Z,93.80
2017-12-20T08:09:57.670Z,93.80
2017-12-20T08:12:25.923Z,94.50
2017-12-20T08:14:54.291Z,94.60
2017-12-20T08:17:22.533Z,95.10
2017-12-20T08:19:50.774Z,94.50
2017-12-20T08:22:19.059Z,94.50
2017-12-20T08:24:48.051Z,94.40
2017-12-20T08:27:16.291Z,94.30
2017-12-20T08:29:44.567Z,94.60
2017-12-20T08:32:12.811Z,94.50
2017-12-20T08:34:41.203Z,93.90
2017-12-20T08:37:09.975Z,94.40
2017-12-20T08:39:38.223Z,94.60
2017-12-20T08:42:06.471Z,94.40
2017-12-20T08:44:34.738Z,94.10
2017-12-20T08:47:04.943Z,93.80
2017-12-20T08:49:33.186Z,93.60
2017-12-20T08:52:01.552Z,93.00
2017-12-20T08:54:29.799Z,93.80
2017-12-20T08:56:58.959Z,90.40
2017-12-20T08:59:27.279Z,90.40
2017-12-20T09:01:56.299Z,88.40
2017-12-20T09:04:24.551Z,88.40
2017-12-20T09:06:53.629Z,90.40
2017-12-20T09:09:22.914Z,90.40
2017-12-20T09:11:52.229Z,91.10
2017-12-20T09:14:20.523Z,91.70
2017-12-20T09:16:49.548Z,90.90
2017-12-20T09:19:17.795Z,90.80
2017-12-20T09:21:46.199Z,90.20
2017-12-20T09:24:14.451Z,90.60
2017-12-20T09:26:42.701Z,88.60
2017-12-20T09:29:10.973Z,86.50
2017-12-20T09:31:39.206Z,87.80
2017-12-20T09:34:07.454Z,90.00
2017-12-20T09:36:35.730Z,90.10
2017-12-20T09:39:03.999Z,90.10
2017-12-20T09:41:33.926Z,88.50
2017-12-20T09:44:03.267Z,85.90
2017-12-20T09:46:31.607Z,85.90
2017-12-20T09:49:00.622Z,89.80
2017-12-20T09:51:28.894Z,89.80
2017-12-20T09:53:57.127Z,89.30
2017-12-20T09:56:25.542Z,89.50
2017-12-20T09:58:54.555Z,89.50
2017-12-20T10:01:22.795Z,89.30
2017-12-20T10:03:51.817Z,84.20
2017-12-20T10:06:20.639Z,84.20
2017-12-20T10:08:48.863Z,86.80
2017-12-20T10:11:17.866Z,86.60
2017-12-20T10:13:46.469Z,86.50
2017-12-20T10:16:14.883Z,86.80
2017-12-20T10:18:43.129Z,86.40
2017-12-20T10:21:11.403Z,85.50
2017-12-20T10:23:39.647Z,84.40
2017-12-20T10:26:07.891Z,85.90
2017-12-20T10:28:36.203Z,88.20
2017-12-20T10:31:05.211Z,89.50
2017-12-20T10:33:33.451Z,89.50
2017-12-20T10:36:01.915Z,89.30
2017-12-20T10:38:30.155Z,90.00
2017-12-20T10:40:58.404Z,90.00
2017-12-20T10:43:27.434Z,83.90
2017-12-20T10:45:55.670Z,83.90
2017-12-20T10:48:23.912Z,85.40
2017-12-20T10:50:53.318Z,88.20
2017-12-20T10:53:22.735Z,88.10
2017-12-20T10:55:51.103Z,88.20
2017-12-20T10:58:19.373Z,88.80
2017-12-20T11:00:47.612Z,88.60
2017-12-20T11:03:15.867Z,88.80
2017-12-20T11:05:44.326Z,85.80
2017-12-20T11:08:12.583Z,89.20
2017-12-20T11:10:40.892Z,88.60
2017-12-20T11:13:09.563Z,90.00
2017-12-20T11:15:38.132Z,87.30
2017-12-20T11:18:06.350Z,89.20
2017-12-20T11:20:35.379Z,88.90
2017-12-20T11:23:03.622Z,88.80
2017-12-20T11:25:33.803Z,88.60
2017-12-20T11:28:02.246Z,88.60
2017-12-20T11:30:30.493Z,84.10
2017-12-20T11:32:58.730Z,86.40
2017-12-20T11:35:27.051Z,90.10
2017-12-20T11:37:56.060Z,90.00
2017-12-20T11:40:24.307Z,90.00
2017-12-20T11:42:52.573Z,90.80
2017-12-20T11:45:22.246Z,91.30
2017-12-20T11:47:50.486Z,91.30
2017-12-20T11:50:19.579Z,90.80
2017-12-20T11:52:48.091Z,90.80
2017-12-20T11:55:16.335Z,90.40
2017-12-20T11:57:44.715Z,88.40
2017-12-20T12:00:12.956Z,90.20
2017-12-20T12:02:41.480Z,90.70
2017-12-20T12:05:09.875Z,89.10
2017-12-20T12:07:38.131Z,90.20
2017-12-20T12:10:08.306Z,91.50
2017-12-20T12:12:36.758Z,91.40
2017-12-20T12:15:05.012Z,91.10
2017-12-20T12:17:33.459Z,91.10
2017-12-20T12:20:01.959Z,90.90
2017-12-20T12:22:31.149Z,90.30
2017-12-20T12:24:59.789Z,90.30
2017-12-20T12:27:28.066Z,89.10
2017-12-20T12:29:56.363Z,90.20
2017-12-20T12:32:24.639Z,90.90
2017-12-20T12:34:53.064Z,91.10
2017-12-20T12:37:22.175Z,91.90
2017-12-20T12:39:51.183Z,92.10
2017-12-20T12:42:19.503Z,92.10
2017-12-20T12:44:47.779Z,92.40
2017-12-20T12:47:16.155Z,92.00
2017-12-20T12:49:44.410Z,91.10
2017-12-20T12:52:12.666Z,91.10
2017-12-20T12:54:41.204Z,92.00
2017-12-20T12:57:09.455Z,91.40
2017-12-20T12:59:37.907Z,90.90
2017-12-20T13:02:06.317Z,91.30
2017-12-20T13:04:34.736Z,91.10
2017-12-20T13:07:04.002Z,91.40
2017-12-20T13:09:33.416Z,91.10
2017-12-20T13:12:02.752Z,91.10
2017-12-20T13:14:36.007Z,91.80
2017-12-20T13:17:04.431Z,91.80
2017-12-20T13:19:33.438Z,92.20
2017-12-20T13:22:02.686Z,92.10
2017-12-20T13:24:32.057Z,92.60
2017-12-20T13:27:02.513Z,92.50
2017-12-20T13:29:30.886Z,91.90
2017-12-20T13:32:01.182Z,92.00
2017-12-20T13:34:31.639Z,91.80
2017-12-20T13:37:01.922Z,91.60
2017-12-20T13:39:30.247Z,90.40
2017-12-20T13:41:58.491Z,90.00
2017-12-20T13:44:26.844Z,90.40
2017-12-20T13:46:55.079Z,90.80
2017-12-20T13:49:23.319Z,90.60
2017-12-20T13:51:51.587Z,91.80
2017-12-20T13:54:23.903Z,92.50
2017-12-20T13:56:52.164Z,92.30
2017-12-20T13:59:20.440Z,92.50
2017-12-20T14:01:48.746Z,92.80
2017-12-20T14:04:17.496Z,92.70
2017-12-20T14:06:45.795Z,92.80
2017-12-20T14:09:14.371Z,92.00
2017-12-20T14:11:46.579Z,92.00
2017-12-20T14:14:15.603Z,92.40
2017-12-20T14:16:43.871Z,92.40
2017-12-20T14:19:12.431Z,91.90
2017-12-20T14:21:41.611Z,91.80
2017-12-20T14:24:09.855Z,91.80
2017-12-20T14:26:38.207Z,92.20
2017-12-20T14:29:06.455Z,92.50
2017-12-20T14:31:34.699Z,92.30
2017-12-20T14:34:04.139Z,92.30
2017-12-20T14:36:33.146Z,91.20
2017-12-20T14:39:02.155Z,90.70
2017-12-20T14:41:30.421Z,90.70
2017-12-20T14:43:58.749Z,90.60
2017-12-20T14:46:27.019Z,90.50
2017-12-20T14:48:57.559Z,90.60
2017-12-20T14:51:25.838Z,91.10
2017-12-20T14:53:54.225Z,91.70
2017-12-20T14:56:22.817Z,92.00
2017-12-20T14:58:51.055Z,92.20
2017-12-20T15:01:19.301Z,92.70
2017-12-20T15:03:47.785Z,92.80
2017-12-20T15:06:16.114Z,92.00
2017-12-20T15:08:46.338Z,92.20
2017-12-20T15:11:16.033Z,92.70
2017-12-20T15:13:45.303Z,92.70
2017-12-20T15:16:13.543Z,93.30
2017-12-20T15:18:42.199Z,93.20
2017-12-20T15:21:10.577Z,93.40
2017-12-20T15:23:39.987Z,93.40
2017-12-20T15:26:10.319Z,93.50
2017-12-20T15:28:38.676Z,92.80
2017-12-20T15:31:06.902Z,92.60
2017-12-20T15:33:35.447Z,91.80
2017-12-20T15:36:03.924Z,92.20
2017-12-20T15:38:32.201Z,91.80
2017-12-20T15:41:01.475Z,91.00
2017-12-20T15:43:30.706Z,91.60
2017-12-20T15:45:59.100Z,91.30
2017-12-20T15:48:27.498Z,91.60
2017-12-20T15:50:56.966Z,90.80
2017-12-20T15:53:25.456Z,90.80
2017-12-20T15:55:54.140Z,91.00
2017-12-20T15:58:22.522Z,91.10
2017-12-20T16:00:50.899Z,91.40
2017-12-20T16:03:20.541Z,91.60
2017-12-20T16:05:49.539Z,91.50
2017-12-20T16:08:20.575Z,92.10
2017-12-20T16:10:49.055Z,92.10
2017-12-20T16:13:19.247Z,92.30
2017-12-20T16:15:47.496Z,92.30
2017-12-20T16:18:16.093Z,91.60
2017-12-20T16:20:44.723Z,90.10
2017-12-20T16:23:13.735Z,90.30
2017-12-20T16:25:42.003Z,90.30
2017-12-20T16:28:10.443Z,90.30
2017-12-20T16:30:40.096Z,88.90
2017-12-20T16:33:10.295Z,89.00
2017-12-20T16:35:38.651Z,88.90
2017-12-20T16:38:07.031Z,89.30
2017-12-20T16:40:35.800Z,89.40
2017-12-20T16:43:06.250Z,90.60
2017-12-20T16:45:34.649Z,90.80
2017-12-20T16:48:03.964Z,90.60
2017-12-20T16:50:32.974Z,88.50
2017-12-20T16:53:01.302Z,88.40
2017-12-20T16:55:30.626Z,88.50
2017-12-20T16:58:01.019Z,90.60
2017-12-20T17:00:29.519Z,90.50
2017-12-20T17:02:57.979Z,91.10
2017-12-20T17:05:27.204Z,91.50
2017-12-20T17:07:55.760Z,91.00
2017-12-20T17:10:26.739Z,90.20
2017-12-20T17:12:56.935Z,90.10
2017-12-20T17:15:25.223Z,90.00
2017-12-20T17:17:53.491Z,90.80
2017-12-20T17:20:23.950Z,90.70
2017-12-20T17:22:52.294Z,91.00
2017-12-20T17:25:22.619Z,91.30
2017-12-20T17:27:50.880Z,91.20
2017-12-20T17:30:19.274Z,91.00
2017-12-20T17:32:48.625Z,90.70
2017-12-20T17:35:16.964Z,91.30
2017-12-20T17:37:45.258Z,90.70
2017-12-20T17:40:13.569Z,90.90
2017-12-20T17:42:42.922Z,91.50
2017-12-20T17:45:12.126Z,91.40
2017-12-20T17:47:40.467Z,91.40
2017-12-20T17:50:08.771Z,91.10
2017-12-20T17:52:37.342Z,92.10
2017-12-20T17:55:05.628Z,90.80
2017-12-20T17:57:37.902Z,90.90
2017-12-20T18:00:06.310Z,90.10
2017-12-20T18:02:35.330Z,89.30
2017-12-20T18:05:03.803Z,89.20
2017-12-20T18:07:32.251Z,89.60
2017-12-20T18:10:00.730Z,90.10
2017-12-20T18:12:29.043Z,90.50
2017-12-20T18:14:57.523Z,90.50
2017-12-20T18:17:31.119Z,89.60
2017-12-20T18:20:00.408Z,90.70
2017-12-20T18:22:29.451Z,92.00
2017-12-20T18:24:57.751Z,92.00
2017-12-20T18:27:26.219Z,91.30
2017-12-20T18:29:54.471Z,91.70
2017-12-20T18:32:22.731Z,92.00
2017-12-20T18:34:51.003Z,92.20
2017-12-20T18:37:19.344Z,93.40
2017-12-20T18:39:47.722Z,93.10
2017-12-20T18:42:20.127Z,91.80
2017-12-20T18:44:49.194Z,91.70
2017-12-20T18:47:17.447Z,91.70
2017-12-20T18:49:46.059Z,91.80
2017-12-20T18:52:14.319Z,90.60
2017-12-20T18:54:42.578Z,90.90
2017-12-20T18:57:10.864Z,91.50
2017-12-20T18:59:39.111Z,91.80
2017-12-20T19:02:08.359Z,91.80
2017-12-20T19:04:36.760Z,91.50
2017-12-20T19:07:05.784Z,91.90
2017-12-20T19:09:35.094Z,91.80
2017-12-20T19:12:03.579Z,92.40
2017-12-20T19:14:32.285Z,93.00
2017-12-20T19:17:00.532Z,92.70
2017-12-20T19:19:28.882Z,92.50
2017-12-20T19:21:59.998Z,92.60
2017-12-20T19:24:28.460Z,92.50
2017-12-20T19:26:56.791Z,92.70
2017-12-20T19:29:26.986Z,93.30
2017-12-20T19:31:55.359Z,93.30
2017-12-20T19:34:23.832Z,92.70
2017-12-20T19:36:52.147Z,92.40
2017-12-20T19:39:21.168Z,91.80
2017-12-20T19:41:50.442Z,91.80
2017-12-20T19:44:19.459Z,90.30
2017-12-20T19:46:47.857Z,90.30
2017-12-20T19:49:16.429Z,90.60
2017-12-20T19:51:44.851Z,91.10
2017-12-20T19:54:13.235Z,90.70
2017-12-20T19:56:41.574Z,90.90
2017-12-20T19:59:10.178Z,91.30
2017-12-20T20:01:39.633Z,91.60
2017-12-20T20:04:08.671Z,89.60
2017-12-20T20:06:36.971Z,89.60
2017-12-20T20:09:06.280Z,89.60
2017-12-20T20:11:34.672Z,90.40
2017-12-20T20:14:03.698Z,91.80
2017-12-20T20:16:33.024Z,91.00
2017-12-20T20:19:05.700Z,91.00
2017-12-20T20:21:34.003Z,90.50
2017-12-20T20:24:02.391Z,90.90
2017-12-20T20:26:30.794Z,91.40
2017-12-20T20:28:59.823Z,91.80
2017-12-20T20:31:29.088Z,91.70
2017-12-20T20:33:59.316Z,92.00
2017-12-20T20:36:28.335Z,91.60
2017-12-20T20:38:56.650Z,91.60
2017-12-20T20:41:24.991Z,91.40
2017-12-20T20:43:53.243Z,92.10
2017-12-20T20:46:21.499Z,91.20
2017-12-20T20:48:52.779Z,90.50
2017-12-20T20:51:21.038Z,90.50
2017-12-20T20:53:52.509Z,91.20
2017-12-20T20:56:20.855Z,91.10
2017-12-20T20:58:49.883Z,91.30
2017-12-20T21:01:18.240Z,91.30
2017-12-20T21:03:47.358Z,91.00
2017-12-20T21:06:15.599Z,91.00
2017-12-20T21:08:44.899Z,91.40
2017-12-20T21:11:13.295Z,91.20
2017-12-20T21:13:44.415Z,91.60
2017-12-20T21:16:12.670Z,91.60
2017-12-20T21:18:40.946Z,92.20
2017-12-20T21:21:10.158Z,91.70
2017-12-20T21:23:38.539Z,91.80
2017-12-20T21:26:07.039Z,91.30
2017-12-20T21:28:35.308Z,92.10
2017-12-20T21:31:03.567Z,93.00
2017-12-20T21:33:31.843Z,92.20
2017-12-20T21:36:00.318Z,91.00
2017-12-20T21:38:28.883Z,90.70
2017-12-20T21:40:57.174Z,90.50
2017-12-20T21:43:25.419Z,92.10
2017-12-20T21:45:53.678Z,91.20
2017-12-20T21:48:23.035Z,91.90
2017-12-20T21:50:51.300Z,91.90
2017-12-20T21:53:19.549Z,92.00
2017-12-20T21:55:47.836Z,92.50
2017-12-20T21:58:16.163Z,92.80
2017-12-20T22:00:44.539Z,93.00
2017-12-20T22:03:12.944Z,92.30
2017-12-20T22:05:41.974Z,92.50
2017-12-20T22:08:12.444Z,92.50
2017-12-20T22:10:40.915Z,92.90
2017-12-20T22:13:09.195Z,92.90
2017-12-20T22:15:37.609Z,93.50
2017-12-20T22:18:07.835Z,93.30
2017-12-20T22:20:36.184Z,93.30
2017-12-20T22:23:04.575Z,93.40
2017-12-20T22:25:33.649Z,93.90
2017-12-20T22:28:01.913Z,93.90
2017-12-20T22:30:30.472Z,93.80
2017-12-20T22:32:58.807Z,93.60
2017-12-20T22:35:27.840Z,93.60
2017-12-20T22:37:56.096Z,93.60
2017-12-20T22:40:25.140Z,93.30
2017-12-20T22:42:53.431Z,93.30
2017-12-20T22:45:21.840Z,93.50
2017-12-20T22:47:52.068Z,93.40
2017-12-20T22:50:25.056Z,93.70
2017-12-20T22:52:55.640Z,93.50
2017-12-20T22:55:23.939Z,93.50
2017-12-20T22:57:52.190Z,93.20
2017-12-20T23:00:21.274Z,91.30
2017-12-20T23:02:49.520Z,91.30
2017-12-20T23:05:17.788Z,91.90
2017-12-20T23:07:48.039Z,91.80
2017-12-20T23:10:17.323Z,91.80
2017-12-20T23:12:45.703Z,92.40
2017-12-20T23:15:15.119Z,92.90
2017-12-20T23:17:43.371Z,92.70
2017-12-20T23:20:11.728Z,93.00
2017-12-20T23:22:40.111Z,93.70
2017-12-20T23:25:09.139Z,93.70
2017-12-20T23:27:37.409Z,93.70
2017-12-20T23:30:06.499Z,93.10
2017-12-20T23:32:35.549Z,92.60
2017-12-20T23:35:03.836Z,92.50
2017-12-20T23:37:32.329Z,92.30
2017-12-20T23:40:06.452Z,93.30
2017-12-20T23:42:35.531Z,93.80
2017-12-20T23:45:03.817Z,93.80
2017-12-20T23:47:34.063Z,93.20
2017-12-20T23:50:02.430Z,93.10
2017-12-20T23:52:31.448Z,93.80
2017-12-20T23:54:59.790Z,93.80
2017-12-20T23:57:29.267Z,94.80
2017-12-20T23:59:57.519Z,94.80
